Terminal Aerodrome Forecast
Issued by NWS Pocatello, ID

Home | Current Version | Previous Version | Text Only | Print | Product List | Glossary On
Versions: 1 2 3 4 5 6 7 8 9 10 11 12 13 14 15 16 17 18 19
124
FTUS45 KPIH 201122
TAFIDA
TAF
KIDA 201122Z 2012/2112 22008KT P6SM FEW025 OVC080
     FM201500 33006KT P6SM FEW015 BKN080
     FM201900 33011KT P6SM SCT010 BKN150
     FM210200 33008KT P6SM SCT150=

USA.gov is the U.S. government's official web portal to all federal, state and local government web resources and services.